createdAt,value
2019-05-17T00:01:22.363Z,10.94
2019-05-17T00:03:53.777Z,10.94
2019-05-17T00:06:24.574Z,10.97
2019-05-17T00:08:56.454Z,10.94
2019-05-17T00:11:27.959Z,11.06
2019-05-17T00:13:58.704Z,11.04
2019-05-17T00:16:29.708Z,11.03
2019-05-17T00:19:00.843Z,11.04
2019-05-17T00:21:31.568Z,11.00
2019-05-17T00:24:02.544Z,10.99
2019-05-17T00:26:33.344Z,10.94
2019-05-17T00:29:06.653Z,10.93
2019-05-17T00:31:37.158Z,10.88
2019-05-17T00:34:07.883Z,10.85
2019-05-17T00:36:38.677Z,10.86
2019-05-17T00:39:09.814Z,10.92
2019-05-17T00:41:40.543Z,10.87
2019-05-17T00:44:11.430Z,10.84
2019-05-17T00:46:42.456Z,10.84
2019-05-17T00:49:13.266Z,10.89
2019-05-17T00:51:44.223Z,10.85
2019-05-17T00:54:17.256Z,10.83
2019-05-17T00:56:47.575Z,10.80
2019-05-17T00:59:18.331Z,10.80
2019-05-17T01:01:49.075Z,10.79
2019-05-17T01:04:19.894Z,10.80
2019-05-17T01:06:50.767Z,10.75
2019-05-17T01:09:21.738Z,10.75
2019-05-17T01:11:52.472Z,10.67
2019-05-17T01:14:23.462Z,10.68
2019-05-17T01:16:56.360Z,10.69
2019-05-17T01:19:27.073Z,10.69
2019-05-17T01:21:58.049Z,10.69
2019-05-17T01:24:29.024Z,10.67
2019-05-17T01:27:00.077Z,10.67
2019-05-17T01:29:31.146Z,10.72
2019-05-17T01:32:02.366Z,10.71
2019-05-17T01:34:33.209Z,10.70
2019-05-17T01:37:06.339Z,10.72
2019-05-17T01:39:37.462Z,10.67
2019-05-17T01:42:09.567Z,10.70
2019-05-17T01:44:40.313Z,10.81
2019-05-17T01:47:11.514Z,10.77
2019-05-17T01:49:42.859Z,10.71
2019-05-17T01:52:13.833Z,10.63
2019-05-17T01:54:46.781Z,10.67
2019-05-17T01:57:17.093Z,10.64
2019-05-17T01:59:47.847Z,10.61
2019-05-17T02:02:23.144Z,10.61
2019-05-17T02:04:54.115Z,10.60
2019-05-17T02:07:26.716Z,10.58
2019-05-17T02:09:57.825Z,10.53
2019-05-17T02:12:28.623Z,10.56
2019-05-17T02:14:59.617Z,10.57
2019-05-17T02:17:30.573Z,10.52
2019-05-17T02:20:02.515Z,10.51
2019-05-17T02:22:33.315Z,10.61
2019-05-17T02:25:07.137Z,10.55
2019-05-17T02:27:41.181Z,10.61
2019-05-17T02:30:14.018Z,10.61
2019-05-17T02:32:43.443Z,10.52
2019-05-17T02:35:15.396Z,10.62
2019-05-17T02:37:46.355Z,10.69
2019-05-17T02:40:17.589Z,10.59
2019-05-17T02:42:48.865Z,10.58
2019-05-17T02:45:23.205Z,10.62
2019-05-17T02:47:53.802Z,10.63
2019-05-17T02:50:24.663Z,10.61
2019-05-17T02:52:55.713Z,10.62
2019-05-17T02:55:26.448Z,10.61
2019-05-17T02:57:57.849Z,10.62
2019-05-17T03:00:28.689Z,10.59
2019-05-17T03:03:03.037Z,10.66
2019-05-17T03:05:33.695Z,10.66
2019-05-17T03:08:05.121Z,10.68
2019-05-17T03:10:35.861Z,10.65
2019-05-17T03:13:06.669Z,10.71
2019-05-17T03:15:37.405Z,10.68
2019-05-17T03:18:08.212Z,10.64
2019-05-17T03:20:38.986Z,10.70
2019-05-17T03:23:12.429Z,10.68
2019-05-17T03:25:44.078Z,10.63
2019-05-17T03:28:15.036Z,10.65
2019-05-17T03:30:47.379Z,10.70
2019-05-17T03:33:18.584Z,10.68
2019-05-17T03:35:49.522Z,10.68
2019-05-17T03:38:22.785Z,10.69
2019-05-17T03:41:18.279Z,10.73
2019-05-17T03:43:26.495Z,10.74
2019-05-17T03:45:58.029Z,10.74
2019-05-17T03:48:28.868Z,10.73
2019-05-17T03:51:02.383Z,10.73
2019-05-17T03:53:33.451Z,10.68
2019-05-17T03:56:04.443Z,10.69
2019-05-17T03:58:35.255Z,10.68
2019-05-17T04:01:06.496Z,10.53
2019-05-17T04:03:37.530Z,10.50
2019-05-17T04:06:08.717Z,10.42
2019-05-17T04:08:42.253Z,10.43
2019-05-17T04:11:22.402Z,10.35
2019-05-17T04:13:45.617Z,10.37
2019-05-17T04:16:16.337Z,10.35
2019-05-17T04:18:47.305Z,10.27
2019-05-17T04:21:18.286Z,10.29
2019-05-17T04:23:49.147Z,10.24
2019-05-17T04:26:22.766Z,10.18
2019-05-17T04:28:53.471Z,10.28
2019-05-17T04:31:25.159Z,10.36
2019-05-17T04:33:56.151Z,10.37
2019-05-17T04:36:27.122Z,10.40
2019-05-17T04:38:58.129Z,10.51
2019-05-17T04:41:44.147Z,10.55
2019-05-17T04:44:02.766Z,10.61
2019-05-17T04:46:33.671Z,10.65
2019-05-17T04:49:05.575Z,10.72
2019-05-17T04:51:36.316Z,10.81
2019-05-17T04:54:07.088Z,10.92
2019-05-17T04:56:37.842Z,11.12
2019-05-17T04:59:09.073Z,11.32
2019-05-17T05:01:43.637Z,11.50
2019-05-17T05:04:15.508Z,11.66
2019-05-17T05:06:45.431Z,12.06
2019-05-17T05:09:16.259Z,11.64
2019-05-17T05:11:59.660Z,11.97
2019-05-17T05:14:19.863Z,11.84
2019-05-17T05:16:52.862Z,11.68
2019-05-17T05:19:23.717Z,11.69
2019-05-17T05:21:54.534Z,11.74
2019-05-17T05:24:26.070Z,11.78
2019-05-17T05:26:56.808Z,11.64
2019-05-17T05:29:27.888Z,11.69
2019-05-17T05:31:58.656Z,11.65
2019-05-17T05:34:29.652Z,11.63
2019-05-17T05:37:02.094Z,11.76
2019-05-17T05:39:33.305Z,11.58
2019-05-17T05:42:10.231Z,11.62
2019-05-17T05:44:37.296Z,11.77
2019-05-17T05:47:08.941Z,11.86
2019-05-17T05:49:39.945Z,11.95
2019-05-17T05:52:12.517Z,12.07
2019-05-17T05:54:43.386Z,12.20
2019-05-17T05:57:14.398Z,12.34
2019-05-17T05:59:45.237Z,12.49
2019-05-17T06:02:16.292Z,12.41
2019-05-17T06:04:47.347Z,12.54
2019-05-17T06:07:18.422Z,12.79
2019-05-17T06:09:51.612Z,12.73
2019-05-17T06:12:27.697Z,12.56
2019-05-17T06:14:54.530Z,12.75
2019-05-17T06:17:25.537Z,12.78
2019-05-17T06:19:56.297Z,12.62
2019-05-17T06:22:27.533Z,12.59
2019-05-17T06:24:58.314Z,12.68
2019-05-17T06:27:29.155Z,12.70
2019-05-17T06:30:01.514Z,12.62
2019-05-17T06:32:32.341Z,12.73
2019-05-17T06:35:03.176Z,12.84
2019-05-17T06:37:34.412Z,12.98
2019-05-17T06:40:05.665Z,13.29
2019-05-17T06:42:41.086Z,13.23
2019-05-17T06:45:09.324Z,13.46
2019-05-17T06:47:42.322Z,13.46
2019-05-17T06:50:14.251Z,13.70
2019-05-17T06:52:45.659Z,13.93
2019-05-17T06:55:16.493Z,13.83
2019-05-17T06:57:47.435Z,14.45
2019-05-17T07:00:23.422Z,14.45
2019-05-17T07:02:51.540Z,14.82
2019-05-17T07:05:26.485Z,15.82
2019-05-17T07:08:00.110Z,15.59
2019-05-17T07:10:30.383Z,15.67
2019-05-17T07:13:01.978Z,15.99
2019-05-17T07:15:43.671Z,16.38
2019-05-17T07:18:05.757Z,17.10
2019-05-17T07:20:36.491Z,17.18
2019-05-17T07:23:07.426Z,17.12
2019-05-17T07:25:39.707Z,17.30
2019-05-17T07:28:10.925Z,17.06
2019-05-17T07:30:42.876Z,16.95
2019-05-17T07:33:13.949Z,16.32
2019-05-17T07:35:44.948Z,15.79
2019-05-17T07:38:15.943Z,15.39
2019-05-17T07:40:46.995Z,15.15
2019-05-17T07:43:20.568Z,15.25
2019-05-17T07:45:50.711Z,15.56
2019-05-17T07:48:21.930Z,15.70
2019-05-17T07:50:53.145Z,16.20
2019-05-17T07:53:24.133Z,16.37
2019-05-17T07:55:54.903Z,16.49
2019-05-17T07:58:26.142Z,16.78
2019-05-17T08:00:57.384Z,17.03
2019-05-17T08:03:29.866Z,17.35
2019-05-17T08:06:00.724Z,17.47
2019-05-17T08:08:31.567Z,17.50
2019-05-17T08:11:02.506Z,17.17
2019-05-17T08:13:33.860Z,16.58
2019-05-17T08:16:04.693Z,16.59
2019-05-17T08:18:35.696Z,16.49
2019-05-17T08:21:06.523Z,16.58
2019-05-17T08:23:39.845Z,16.30
2019-05-17T08:26:10.805Z,16.34
2019-05-17T08:28:41.712Z,16.39
2019-05-17T08:31:12.435Z,16.46
2019-05-17T08:33:43.252Z,17.12
2019-05-17T08:36:14.304Z,16.93
2019-05-17T08:38:45.041Z,16.58
2019-05-17T08:41:16.010Z,16.54
2019-05-17T08:43:47.278Z,16.40
2019-05-17T08:46:19.922Z,16.42
2019-05-17T08:48:51.019Z,16.76
2019-05-17T08:51:21.919Z,16.87
2019-05-17T08:53:52.927Z,16.88
2019-05-17T08:56:23.948Z,16.89
2019-05-17T08:58:55.487Z,17.35
2019-05-17T09:01:26.961Z,17.16
2019-05-17T09:03:59.771Z,17.18
2019-05-17T09:06:30.168Z,17.26
2019-05-17T09:09:01.031Z,17.70
2019-05-17T09:11:33.321Z,18.12
2019-05-17T09:14:04.432Z,18.23
2019-05-17T09:16:35.170Z,18.43
2019-05-17T09:19:06.896Z,18.40
2019-05-17T09:21:39.757Z,18.48
2019-05-17T09:24:10.638Z,18.28
2019-05-17T09:26:42.352Z,18.68
2019-05-17T09:29:13.147Z,18.60
2019-05-17T09:31:44.105Z,18.10
2019-05-17T09:34:15.178Z,17.84
2019-05-17T09:36:45.905Z,17.79
2019-05-17T09:39:16.685Z,17.62
2019-05-17T09:41:50.164Z,17.77
2019-05-17T09:44:20.735Z,17.85
2019-05-17T09:46:51.900Z,17.53
2019-05-17T09:49:23.112Z,17.88
2019-05-17T09:51:53.852Z,18.72
2019-05-17T09:54:39.993Z,18.21
2019-05-17T09:57:00.306Z,18.18
2019-05-17T09:59:30.671Z,18.11
2019-05-17T10:02:01.696Z,17.95
2019-05-17T10:04:32.520Z,17.84
2019-05-17T10:07:03.290Z,17.90
2019-05-17T10:09:34.107Z,17.80
2019-05-17T10:12:05.109Z,17.89
2019-05-17T10:14:36.477Z,17.91
2019-05-17T10:17:09.691Z,18.02
2019-05-17T10:19:40.295Z,18.31
2019-05-17T10:22:11.773Z,18.23
2019-05-17T10:24:42.809Z,19.05
2019-05-17T10:27:14.691Z,19.63
2019-05-17T10:29:45.950Z,18.88
2019-05-17T10:32:17.046Z,19.35
2019-05-17T10:34:49.510Z,19.63
2019-05-17T10:37:20.749Z,20.20
2019-05-17T10:39:51.644Z,19.50
2019-05-17T10:42:22.968Z,19.11
2019-05-17T10:44:54.707Z,19.43
2019-05-17T10:47:25.712Z,19.33
2019-05-17T10:49:56.733Z,18.80
2019-05-17T10:52:29.729Z,18.60
2019-05-17T10:55:00.074Z,18.74
2019-05-17T10:57:30.875Z,18.88
2019-05-17T11:00:02.119Z,18.65
2019-05-17T11:02:34.800Z,18.91
2019-05-17T11:05:07.542Z,19.44
2019-05-17T11:07:38.369Z,19.09
2019-05-17T11:10:11.750Z,19.12
2019-05-17T11:12:42.742Z,18.80
2019-05-17T11:15:13.988Z,19.16
2019-05-17T11:17:44.712Z,18.97
2019-05-17T11:20:16.390Z,19.48
2019-05-17T11:22:47.319Z,20.08
2019-05-17T11:25:18.197Z,20.55
2019-05-17T11:27:49.028Z,20.07
2019-05-17T11:30:21.258Z,19.90
2019-05-17T11:32:52.209Z,19.71
2019-05-17T11:35:24.764Z,19.16
2019-05-17T11:37:55.593Z,19.28
2019-05-17T11:40:26.588Z,19.24
2019-05-17T11:42:57.913Z,19.27
2019-05-17T11:45:32.499Z,19.24
2019-05-17T11:48:01.783Z,19.16
2019-05-17T11:50:32.899Z,19.77
2019-05-17T11:53:04.283Z,20.20
2019-05-17T11:55:35.373Z,20.28
2019-05-17T11:58:06.179Z,20.20
2019-05-17T12:00:37.465Z,20.65
2019-05-17T12:03:08.871Z,21.09
2019-05-17T12:05:39.755Z,20.60
2019-05-17T12:08:10.755Z,20.05
2019-05-17T12:10:41.635Z,20.00
2019-05-17T12:13:13.485Z,20.23
2019-05-17T12:15:45.717Z,20.77
2019-05-17T12:18:16.590Z,21.06
2019-05-17T12:20:47.421Z,21.58
2019-05-17T12:23:18.154Z,21.03
2019-05-17T12:25:49.243Z,20.27
2019-05-17T12:28:19.997Z,20.14
2019-05-17T12:30:50.795Z,20.09
2019-05-17T12:33:21.773Z,19.88
2019-05-17T12:35:53.036Z,19.96
2019-05-17T12:38:23.760Z,19.81
2019-05-17T12:40:54.853Z,19.96
2019-05-17T12:43:26.218Z,20.77
2019-05-17T12:46:00.668Z,21.13
2019-05-17T12:48:30.236Z,20.77
2019-05-17T12:51:01.453Z,20.41
2019-05-17T12:53:32.537Z,20.12
2019-05-17T12:56:03.495Z,20.61
2019-05-17T12:58:34.250Z,20.47
2019-05-17T13:01:06.165Z,20.08
2019-05-17T13:03:37.120Z,20.00
2019-05-17T13:06:08.457Z,20.06
2019-05-17T13:08:39.223Z,20.44
2019-05-17T13:11:10.083Z,20.19
2019-05-17T13:13:40.817Z,20.06
2019-05-17T13:16:18.047Z,19.89
2019-05-17T13:18:44.466Z,19.82
2019-05-17T13:21:15.451Z,19.64
2019-05-17T13:23:46.653Z,19.67
2019-05-17T13:26:17.732Z,19.87
2019-05-17T13:28:48.464Z,19.94
2019-05-17T13:31:19.362Z,19.79
2019-05-17T13:33:50.574Z,19.73
2019-05-17T13:36:21.318Z,19.74
2019-05-17T13:38:52.079Z,19.68
2019-05-17T13:41:22.872Z,19.89
2019-05-17T13:43:53.752Z,20.13
2019-05-17T13:46:33.330Z,20.60
2019-05-17T13:48:59.401Z,20.65
2019-05-17T13:51:30.498Z,20.75
2019-05-17T13:54:01.458Z,21.62
2019-05-17T13:56:32.691Z,21.55
2019-05-17T13:59:03.503Z,21.66
2019-05-17T14:01:34.474Z,21.69
2019-05-17T14:04:05.505Z,21.31
2019-05-17T14:06:36.492Z,20.90
2019-05-17T14:09:07.643Z,21.05
2019-05-17T14:11:38.632Z,21.73
2019-05-17T14:14:09.865Z,22.16
2019-05-17T14:16:40.860Z,21.63
2019-05-17T14:19:11.663Z,21.86
2019-05-17T14:21:42.429Z,22.01
2019-05-17T14:24:13.381Z,22.20
2019-05-17T14:26:44.123Z,21.92
2019-05-17T14:29:16.659Z,22.30
2019-05-17T14:31:48.938Z,22.33
2019-05-17T14:34:20.764Z,22.44
2019-05-17T14:36:53.696Z,22.31
2019-05-17T14:39:26.206Z,22.52
2019-05-17T14:41:59.038Z,22.56
2019-05-17T14:44:30.825Z,22.46
2019-05-17T14:47:03.831Z,22.23
2019-05-17T14:49:38.015Z,22.40
2019-05-17T14:52:09.125Z,22.34
2019-05-17T14:54:39.855Z,22.49
2019-05-17T14:57:10.891Z,22.71
2019-05-17T14:59:43.713Z,22.36
2019-05-17T15:02:14.900Z,22.57
2019-05-17T15:04:45.874Z,22.44
2019-05-17T15:07:16.657Z,22.65
2019-05-17T15:09:47.637Z,22.29
2019-05-17T15:12:27.727Z,21.91
2019-05-17T15:14:51.351Z,21.83
2019-05-17T15:17:22.209Z,22.37
2019-05-17T15:19:52.943Z,22.00
2019-05-17T15:22:23.945Z,22.14
2019-05-17T15:24:54.754Z,22.23
2019-05-17T15:27:25.575Z,21.94
2019-05-17T15:29:56.305Z,22.03
2019-05-17T15:32:27.427Z,21.51
2019-05-17T15:34:58.477Z,21.26
2019-05-17T15:37:29.332Z,21.25
2019-05-17T15:40:00.344Z,21.18
2019-05-17T15:42:43.742Z,21.07
2019-05-17T15:45:05.506Z,21.04
2019-05-17T15:47:36.551Z,21.02
2019-05-17T15:50:07.801Z,20.90
2019-05-17T15:52:38.639Z,20.91
2019-05-17T15:55:09.760Z,20.93
2019-05-17T15:57:40.539Z,20.88
2019-05-17T16:00:12.933Z,20.92
2019-05-17T16:02:43.971Z,20.94
2019-05-17T16:05:15.729Z,20.95
2019-05-17T16:07:46.942Z,20.96
2019-05-17T16:10:18.302Z,21.04
2019-05-17T16:13:01.537Z,20.88
2019-05-17T16:15:21.992Z,20.93
2019-05-17T16:17:53.000Z,20.92
2019-05-17T16:20:26.948Z,20.85
2019-05-17T16:22:57.708Z,21.04
2019-05-17T16:25:28.677Z,21.42
2019-05-17T16:27:59.432Z,21.29
2019-05-17T16:30:31.439Z,21.63
2019-05-17T16:33:02.457Z,21.74
2019-05-17T16:35:33.442Z,22.20
2019-05-17T16:38:04.300Z,22.63
2019-05-17T16:40:35.357Z,23.10
2019-05-17T16:43:17.602Z,23.59
2019-05-17T16:45:38.929Z,23.86
2019-05-17T16:48:10.235Z,24.19
2019-05-17T16:50:41.042Z,23.43
2019-05-17T16:53:12.033Z,23.85
2019-05-17T16:55:42.988Z,23.43
2019-05-17T16:58:13.816Z,23.07
2019-05-17T17:00:44.706Z,22.18
2019-05-17T17:03:15.693Z,21.94
2019-05-17T17:05:46.523Z,21.85
2019-05-17T17:08:17.989Z,21.50
2019-05-17T17:10:49.319Z,21.43
2019-05-17T17:13:32.454Z,22.07
2019-05-17T17:15:53.752Z,22.27
2019-05-17T17:18:24.737Z,21.99
2019-05-17T17:20:55.464Z,21.70
2019-05-17T17:23:27.257Z,21.28
2019-05-17T17:25:58.065Z,21.13
2019-05-17T17:28:29.877Z,20.98
2019-05-17T17:31:00.909Z,20.84
2019-05-17T17:33:32.015Z,20.47
2019-05-17T17:36:02.856Z,20.43
2019-05-17T17:38:34.288Z,20.16
2019-05-17T17:41:05.094Z,20.08
2019-05-17T17:43:36.848Z,19.59
2019-05-17T17:46:07.933Z,19.51
2019-05-17T17:48:38.960Z,19.38
2019-05-17T17:51:10.959Z,19.25
2019-05-17T17:53:41.769Z,19.04
2019-05-17T17:56:13.635Z,19.00
2019-05-17T17:58:44.527Z,18.90
2019-05-17T18:01:15.569Z,18.93
2019-05-17T18:03:46.309Z,18.74
2019-05-17T18:06:17.279Z,18.81
2019-05-17T18:08:48.263Z,18.78
2019-05-17T18:11:19.366Z,18.83
2019-05-17T18:13:50.125Z,18.83
2019-05-17T18:16:21.050Z,18.80
2019-05-17T18:18:52.295Z,18.83
2019-05-17T18:21:23.173Z,18.89
2019-05-17T18:23:54.677Z,18.82
2019-05-17T18:26:26.746Z,18.83
2019-05-17T18:28:58.049Z,18.83
2019-05-17T18:31:29.228Z,18.80
2019-05-17T18:34:00.610Z,18.73
2019-05-17T18:36:31.405Z,18.82
2019-05-17T18:39:02.530Z,18.84
2019-05-17T18:41:35.041Z,18.73
2019-05-17T18:44:06.299Z,18.60
2019-05-17T18:46:37.365Z,18.65
2019-05-17T18:49:08.343Z,18.53
2019-05-17T18:51:39.376Z,18.48
2019-05-17T18:54:11.136Z,18.41
2019-05-17T18:56:42.127Z,18.25
2019-05-17T18:59:14.114Z,18.11
2019-05-17T19:01:44.979Z,17.98
2019-05-17T19:04:16.060Z,17.81
2019-05-17T19:06:46.831Z,17.77
2019-05-17T19:09:17.648Z,17.52
2019-05-17T19:11:48.520Z,17.45
2019-05-17T19:14:20.566Z,17.26
2019-05-17T19:16:51.306Z,17.19
2019-05-17T19:19:22.124Z,17.12
2019-05-17T19:21:53.406Z,17.04
2019-05-17T19:24:24.385Z,16.81
2019-05-17T19:26:55.653Z,16.79
2019-05-17T19:29:26.795Z,16.66
2019-05-17T19:31:57.607Z,16.57
2019-05-17T19:34:28.672Z,16.46
2019-05-17T19:36:59.738Z,16.42
2019-05-17T19:39:30.721Z,16.37
2019-05-17T19:42:01.583Z,16.30
2019-05-17T19:44:33.111Z,16.17
2019-05-17T19:47:03.918Z,16.06
2019-05-17T19:49:34.895Z,15.97
2019-05-17T19:52:05.938Z,15.95
2019-05-17T19:54:37.170Z,15.87
2019-05-17T19:57:08.355Z,15.77
2019-05-17T19:59:39.101Z,15.70
2019-05-17T20:02:10.205Z,15.61
2019-05-17T20:04:41.199Z,15.53
2019-05-17T20:07:11.942Z,15.50
2019-05-17T20:09:42.790Z,15.25
2019-05-17T20:12:13.521Z,15.22
2019-05-17T20:14:44.313Z,15.11
2019-05-17T20:17:15.075Z,15.06
2019-05-17T20:19:46.168Z,15.04
2019-05-17T20:22:16.987Z,15.06
2019-05-17T20:24:48.403Z,15.02
2019-05-17T20:27:19.130Z,15.02
2019-05-17T20:29:50.368Z,14.94
2019-05-17T20:32:21.624Z,14.91
2019-05-17T20:34:53.798Z,14.86
2019-05-17T20:37:25.207Z,14.82
2019-05-17T20:39:55.956Z,14.80
2019-05-17T20:42:26.738Z,14.80
2019-05-17T20:44:58.013Z,14.74
2019-05-17T20:47:29.921Z,14.79
2019-05-17T20:50:00.754Z,14.79
2019-05-17T20:52:32.116Z,14.78
2019-05-17T20:55:02.864Z,14.72
2019-05-17T20:57:33.674Z,14.72
2019-05-17T21:00:04.929Z,14.67
2019-05-17T21:02:37.489Z,14.67
2019-05-17T21:05:08.878Z,14.57
2019-05-17T21:07:39.615Z,14.57
2019-05-17T21:10:12.357Z,14.59
2019-05-17T21:12:43.413Z,14.55
2019-05-17T21:15:15.092Z,14.55
2019-05-17T21:17:46.171Z,14.54
2019-05-17T21:20:17.695Z,14.47
2019-05-17T21:22:48.443Z,14.49
2019-05-17T21:25:19.864Z,14.47
2019-05-17T21:27:50.594Z,14.46
2019-05-17T21:30:21.629Z,14.41
2019-05-17T21:32:52.975Z,14.42
2019-05-17T21:35:23.752Z,14.42
2019-05-17T21:37:54.855Z,14.46
2019-05-17T21:40:25.657Z,14.45
2019-05-17T21:42:56.396Z,14.35
2019-05-17T21:45:27.489Z,14.39
2019-05-17T21:47:59.200Z,14.42
2019-05-17T21:50:30.271Z,14.31
2019-05-17T21:53:01.823Z,14.31
2019-05-17T21:55:32.561Z,14.29
2019-05-17T21:58:03.297Z,14.22
2019-05-17T22:01:04.297Z,14.20
2019-05-17T22:03:35.109Z,14.20
2019-05-17T22:06:06.330Z,14.19
2019-05-17T22:08:37.307Z,14.30
2019-05-17T22:11:08.126Z,14.29
2019-05-17T22:13:38.848Z,14.18
2019-05-17T22:16:19.189Z,14.14
2019-05-17T22:18:42.581Z,14.10
2019-05-17T22:21:13.586Z,13.97
2019-05-17T22:23:44.594Z,13.79
2019-05-17T22:26:16.318Z,13.61
2019-05-17T22:28:47.041Z,13.51
2019-05-17T22:31:17.876Z,13.35
2019-05-17T22:33:49.843Z,13.16
2019-05-17T22:36:20.917Z,13.01
2019-05-17T22:38:51.757Z,12.88
2019-05-17T22:41:22.504Z,12.72
2019-05-17T22:43:53.255Z,12.61
2019-05-17T22:46:35.665Z,12.46
2019-05-17T22:48:57.439Z,12.28
2019-05-17T22:51:28.664Z,12.22
2019-05-17T22:54:00.588Z,12.12
2019-05-17T22:56:31.563Z,11.99
2019-05-17T22:59:02.296Z,11.94
2019-05-17T23:01:33.036Z,11.78
2019-05-17T23:04:03.788Z,11.70
2019-05-17T23:06:34.789Z,11.62
2019-05-17T23:09:06.662Z,11.60
2019-05-17T23:11:37.504Z,11.55
2019-05-17T23:14:08.309Z,11.69
2019-05-17T23:16:50.869Z,11.54
2019-05-17T23:19:11.751Z,11.39
2019-05-17T23:21:42.500Z,11.30
2019-05-17T23:24:14.205Z,11.20
2019-05-17T23:26:44.967Z,11.19
2019-05-17T23:29:15.733Z,11.10
2019-05-17T23:31:46.513Z,11.05
2019-05-17T23:34:17.893Z,11.03
2019-05-17T23:36:48.860Z,10.89
2019-05-17T23:39:19.615Z,10.84
2019-05-17T23:41:50.388Z,10.82
2019-05-17T23:44:21.343Z,10.77
2019-05-17T23:47:06.069Z,10.74
2019-05-17T23:49:24.855Z,10.67
2019-05-17T23:51:55.823Z,10.55
2019-05-17T23:54:27.083Z,10.57
2019-05-17T23:56:57.857Z,10.63
2019-05-17T23:59:28.966Z,10.54
